Time;durP1;ratioP1;P1;durP2;ratioP2;P2;SDS_P1;SDS_P2;PMS_P1;PMS_P2;Temp;Humidity;BMP_temperature;BMP_pressure;BME280_temperature;BME280_humidity;BME280_pressure;Samples;Min_cycle;Max_cycle;Signal;HPM_P1;HPM_P2
2021/10/22 00:01:10;;;;;;;9.05;3.70;;;7.60;99.90;;;;;;5046278;28;20397;-57
2021/10/22 00:03:36;;;;;;;9.35;4.47;;;7.60;99.90;;;;;;5031414;28;20486;-57
2021/10/22 00:06:01;;;;;;;7.60;3.60;;;7.60;99.90;;;;;;5047795;28;20381;-57
2021/10/22 00:08:27;;;;;;;10.23;4.10;;;7.70;99.90;;;;;;5048307;28;20392;-56
2021/10/22 00:10:53;;;;;;;10.77;4.23;;;7.60;99.90;;;;;;5048712;28;20389;-57
2021/10/22 00:13:20;;;;;;;7.82;3.80;;;7.50;99.90;;;;;;5051704;28;20376;-57
2021/10/22 00:15:46;;;;;;;7.78;3.47;;;7.50;99.90;;;;;;5055601;28;20469;-57
2021/10/22 00:18:12;;;;;;;9.57;4.00;;;7.50;99.90;;;;;;5054735;28;20380;-57
2021/10/22 00:20:37;;;;;;;9.83;4.20;;;7.60;99.90;;;;;;5055661;28;20663;-57
2021/10/22 00:23:03;;;;;;;9.02;4.10;;;7.50;99.90;;;;;;5055513;28;20369;-57
2021/10/22 00:25:29;;;;;;;9.85;4.18;;;7.50;99.90;;;;;;5054655;28;21024;-57
2021/10/22 00:27:55;;;;;;;8.77;3.83;;;7.50;99.90;;;;;;5055514;28;20381;-57
2021/10/22 00:30:21;;;;;;;11.00;4.10;;;7.40;99.90;;;;;;5054591;28;20891;-57
2021/10/22 00:32:47;;;;;;;9.30;4.47;;;7.30;99.90;;;;;;5053934;28;20502;-57
2021/10/22 00:35:12;;;;;;;9.60;4.30;;;7.30;99.90;;;;;;5053379;28;20412;-57
2021/10/22 00:37:38;;;;;;;9.67;4.00;;;7.30;99.90;;;;;;5055437;28;20396;-57
2021/10/22 00:40:05;;;;;;;11.23;4.20;;;7.30;99.90;;;;;;5055506;28;20473;-57
2021/10/22 00:42:32;;;;;;;10.90;4.45;;;7.30;99.90;;;;;;5054375;28;20381;-57
2021/10/22 00:44:58;;;;;;;11.13;4.50;;;7.30;99.90;;;;;;5055391;28;20393;-57
2021/10/22 00:47:25;;;;;;;10.88;4.13;;;7.30;99.90;;;;;;5054535;28;20431;-57
2021/10/22 00:49:53;;;;;;;9.52;4.60;;;7.30;99.90;;;;;;5055450;28;20504;-57
2021/10/22 00:52:24;;;;;;;9.32;4.22;;;7.40;99.90;;;;;;5054934;28;20396;-57
2021/10/22 00:54:50;;;;;;;11.48;4.10;;;7.50;99.90;;;;;;5055331;28;20856;-57
2021/10/22 00:57:16;;;;;;;9.63;4.40;;;7.50;99.90;;;;;;5054432;28;20528;-57
2021/10/22 00:59:42;;;;;;;8.57;4.22;;;7.50;99.90;;;;;;5055308;28;20461;-57
2021/10/22 01:02:09;;;;;;;7.80;3.30;;;7.60;99.90;;;;;;5054687;28;20685;-58
2021/10/22 01:04:35;;;;;;;7.70;3.90;;;7.60;99.90;;;;;;5054967;28;20381;-57
2021/10/22 01:07:01;;;;;;;11.90;4.40;;;7.60;99.90;;;;;;5053905;28;20400;-57
2021/10/22 01:09:27;;;;;;;9.63;3.47;;;7.60;99.90;;;;;;5054275;28;20754;-57
2021/10/22 01:11:53;;;;;;;8.63;3.60;;;7.50;99.90;;;;;;5055235;28;20431;-57
2021/10/22 01:14:20;;;;;;;9.55;3.50;;;7.50;99.90;;;;;;5054154;28;20377;-57
2021/10/22 01:16:46;;;;;;;7.70;3.70;;;7.50;99.90;;;;;;5054911;28;20781;-57
2021/10/22 01:19:16;;;;;;;9.70;3.30;;;7.50;99.90;;;;;;5054421;28;20385;-56
2021/10/22 01:21:45;;;;;;;8.80;3.40;;;7.40;99.90;;;;;;5055025;28;20869;-58
2021/10/22 01:24:12;;;;;;;9.43;3.70;;;7.50;99.90;;;;;;5052608;28;20390;-58
2021/10/22 01:26:38;;;;;;;7.43;3.35;;;7.50;99.90;;;;;;5051661;28;20397;-57
2021/10/22 01:29:03;;;;;;;6.55;3.50;;;7.40;99.90;;;;;;5050628;28;20405;-57
2021/10/22 01:31:29;;;;;;;11.50;3.40;;;7.40;99.90;;;;;;5051348;28;21005;-58
2021/10/22 01:33:55;;;;;;;10.20;3.25;;;7.40;99.90;;;;;;5051506;28;20385;-57
2021/10/22 01:36:23;;;;;;;10.95;4.10;;;7.40;99.90;;;;;;5049569;28;20435;-58
2021/10/22 01:38:49;;;;;;;8.33;3.20;;;7.40;99.90;;;;;;5051838;28;20487;-57
2021/10/22 01:41:15;;;;;;;9.27;3.25;;;7.40;99.90;;;;;;5050793;28;20385;-57
2021/10/22 01:43:43;;;;;;;7.38;3.20;;;7.30;99.90;;;;;;5051499;28;20388;-57
2021/10/22 01:46:10;;;;;;;10.20;3.60;;;7.20;99.90;;;;;;5051036;28;20388;-57
2021/10/22 01:48:36;;;;;;;7.13;3.30;;;7.20;99.90;;;;;;5050886;28;20461;-57
2021/10/22 01:51:02;;;;;;;7.25;3.38;;;7.20;99.90;;;;;;5043114;28;20395;-57
2021/10/22 01:53:27;;;;;;;8.48;3.20;;;7.20;99.90;;;;;;5034205;28;20383;-57
2021/10/22 01:55:53;;;;;;;7.00;3.27;;;7.10;99.90;;;;;;5038925;28;20375;-57
2021/10/22 01:58:19;;;;;;;10.10;3.90;;;7.10;99.90;;;;;;5030394;28;20493;-57
2021/10/22 02:00:45;;;;;;;7.67;3.50;;;6.90;99.90;;;;;;5031334;28;20464;-57
2021/10/22 02:03:11;;;;;;;8.38;3.78;;;6.90;99.90;;;;;;5030730;28;20387;-57
2021/10/22 02:05:38;;;;;;;9.68;3.90;;;6.80;99.90;;;;;;5031365;28;20474;-57
2021/10/22 02:08:03;;;;;;;10.82;3.80;;;6.80;99.90;;;;;;5046302;28;20391;-57
2021/10/22 02:10:30;;;;;;;8.55;4.00;;;6.80;99.90;;;;;;5030055;28;20493;-58
2021/10/22 02:12:56;;;;;;;8.02;3.80;;;6.80;99.90;;;;;;5031145;28;20391;-57
2021/10/22 02:15:22;;;;;;;10.23;3.85;;;6.70;99.90;;;;;;5030467;28;20386;-57
2021/10/22 02:17:47;;;;;;;7.40;3.50;;;6.70;99.90;;;;;;5031218;28;20379;-58
2021/10/22 02:20:13;;;;;;;8.17;3.30;;;6.70;99.90;;;;;;5030125;28;20470;-57
2021/10/22 02:22:39;;;;;;;9.10;3.90;;;6.70;99.90;;;;;;5031382;28;20388;-57
2021/10/22 02:25:05;;;;;;;8.50;3.87;;;6.70;99.90;;;;;;5031081;28;20402;-57
2021/10/22 02:27:31;;;;;;;10.50;3.70;;;6.60;99.90;;;;;;5030053;28;20406;-58
2021/10/22 02:29:57;;;;;;;6.97;3.57;;;6.60;99.90;;;;;;5030763;28;20443;-57
2021/10/22 02:32:22;;;;;;;9.63;3.60;;;6.50;99.90;;;;;;5029743;28;20855;-57
2021/10/22 02:34:48;;;;;;;9.53;3.40;;;6.40;99.90;;;;;;5030784;28;20393;-57
2021/10/22 02:37:14;;;;;;;10.27;3.60;;;6.50;99.90;;;;;;5029888;28;20456;-58
2021/10/22 02:39:40;;;;;;;8.68;3.20;;;6.50;99.90;;;;;;5030883;28;20422;-57
2021/10/22 02:42:06;;;;;;;8.30;3.65;;;6.50;99.90;;;;;;5030683;28;20390;-57
2021/10/22 02:44:33;;;;;;;9.32;3.45;;;6.50;99.90;;;;;;5044845;28;20474;-57
2021/10/22 02:46:59;;;;;;;10.03;3.00;;;6.50;99.90;;;;;;5030150;28;20391;-57
2021/10/22 02:49:25;;;;;;;13.18;3.05;;;6.50;99.90;;;;;;5029504;28;20446;-57
2021/10/22 02:51:54;;;;;;;8.95;3.30;;;6.50;99.90;;;;;;5030254;28;20386;-57
2021/10/22 02:54:21;;;;;;;8.23;2.80;;;6.40;99.90;;;;;;5044769;28;20483;-57
2021/10/22 02:56:46;;;;;;;9.00;2.50;;;6.40;99.90;;;;;;5030018;28;20469;-57
2021/10/22 02:59:12;;;;;;;10.90;2.30;;;6.40;99.90;;;;;;5039773;28;20477;-57
2021/10/22 03:01:38;;;;;;;11.05;3.50;;;6.30;99.90;;;;;;5049629;28;20865;-57
2021/10/22 03:04:03;;;;;;;8.93;3.20;;;6.30;99.90;;;;;;5049975;28;20745;-57
2021/10/22 03:06:29;;;;;;;11.77;3.00;;;6.30;99.90;;;;;;5048930;28;21194;-57
2021/10/22 03:08:55;;;;;;;13.52;3.65;;;6.30;99.90;;;;;;5049652;28;21043;-57
2021/10/22 03:11:21;;;;;;;7.75;3.20;;;6.30;99.90;;;;;;5049096;28;20853;-57
2021/10/22 03:13:47;;;;;;;9.77;3.40;;;6.30;99.90;;;;;;5048477;28;20381;-57
2021/10/22 03:16:13;;;;;;;7.78;3.10;;;6.20;99.90;;;;;;5047891;28;20392;-58
2021/10/22 03:18:38;;;;;;;9.77;3.53;;;6.40;99.90;;;;;;5049595;28;21215;-57
2021/10/22 03:21:04;;;;;;;9.40;3.55;;;6.20;99.90;;;;;;5049697;28;20469;-57
2021/10/22 03:23:30;;;;;;;11.43;3.83;;;6.20;99.90;;;;;;5048868;28;20386;-57
2021/10/22 03:25:55;;;;;;;9.52;3.60;;;6.10;99.90;;;;;;5049704;28;20408;-57
2021/10/22 03:28:21;;;;;;;9.47;3.37;;;6.10;99.90;;;;;;5046904;28;20447;-56
2021/10/22 03:30:47;;;;;;;10.88;3.55;;;6.10;99.90;;;;;;5046509;28;20938;-56
2021/10/22 03:33:12;;;;;;;10.00;3.30;;;6.00;99.90;;;;;;5038293;28;20453;-56
2021/10/22 03:35:38;;;;;;;10.80;3.67;;;6.00;99.90;;;;;;5028977;28;20435;-57
2021/10/22 03:38:04;;;;;;;8.87;3.30;;;6.00;99.90;;;;;;5029682;28;20790;-57
2021/10/22 03:40:30;;;;;;;8.90;3.10;;;6.10;99.90;;;;;;5034465;28;20502;-57
2021/10/22 03:42:58;;;;;;;12.48;3.80;;;6.00;99.90;;;;;;5035576;28;20872;-57
2021/10/22 03:45:25;;;;;;;8.73;2.80;;;6.10;99.90;;;;;;5039159;28;20402;-56
2021/10/22 03:47:53;;;;;;;11.25;3.22;;;6.10;99.90;;;;;;5029093;28;20390;-57
2021/10/22 03:50:19;;;;;;;10.60;3.30;;;6.00;99.90;;;;;;5028435;28;20406;-56
2021/10/22 03:52:45;;;;;;;8.23;3.17;;;6.00;99.90;;;;;;5029106;28;20886;-57
2021/10/22 03:55:12;;;;;;;12.65;3.80;;;5.90;99.90;;;;;;5028966;28;20379;-57
2021/10/22 03:57:38;;;;;;;10.00;3.80;;;5.80;99.90;;;;;;5028535;28;20777;-56
2021/10/22 04:00:05;;;;;;;10.40;3.63;;;5.70;99.90;;;;;;5029306;28;20383;-57
2021/10/22 04:02:31;;;;;;;8.30;3.50;;;6.40;99.90;;;;;;5045686;28;20475;-57
2021/10/22 04:04:57;;;;;;;9.55;3.83;;;5.70;99.90;;;;;;5048213;28;20478;-57
2021/10/22 04:07:23;;;;;;;9.15;3.70;;;5.80;99.90;;;;;;5040418;28;20407;-57
2021/10/22 04:09:48;;;;;;;15.60;4.00;;;5.80;99.90;;;;;;5029467;28;20419;-57
2021/10/22 04:12:14;;;;;;;8.70;3.30;;;5.80;99.90;;;;;;5029524;28;20394;-58
2021/10/22 04:14:40;;;;;;;10.20;3.77;;;5.80;99.90;;;;;;5028481;28;20399;-57
2021/10/22 04:17:06;;;;;;;8.00;3.40;;;5.80;99.90;;;;;;5035002;28;20531;-56
2021/10/22 04:19:31;;;;;;;12.07;4.05;;;5.80;99.90;;;;;;5041950;28;20410;-57
2021/10/22 04:21:57;;;;;;;11.90;3.80;;;5.70;99.90;;;;;;5027170;28;20450;-56
2021/10/22 04:24:24;;;;;;;9.50;3.60;;;5.70;99.90;;;;;;5027124;28;20399;-56
2021/10/22 04:26:50;;;;;;;8.13;3.60;;;5.70;99.90;;;;;;5028223;28;20739;-58
2021/10/22 04:29:15;;;;;;;10.30;3.83;;;5.60;99.90;;;;;;5031919;28;20409;-58
2021/10/22 04:31:41;;;;;;;10.47;4.13;;;5.60;99.90;;;;;;5039067;28;20415;-58
2021/10/22 04:34:08;;;;;;;8.73;3.72;;;5.50;99.90;;;;;;5037753;28;20402;-56
2021/10/22 04:36:34;;;;;;;13.23;4.03;;;5.50;99.90;;;;;;5043329;28;20458;-56
2021/10/22 04:41:44;;;;;;;13.20;4.40;;;5.60;99.90;;;;;;5028725;28;20375;-57
2021/10/22 04:44:10;;;;;;;9.52;3.83;;;5.50;99.90;;;;;;5028167;28;20410;-57
2021/10/22 04:46:37;;;;;;;15.00;4.00;;;5.50;99.90;;;;;;5026726;28;20442;-57
2021/10/22 04:49:03;;;;;;;11.33;3.47;;;5.50;99.90;;;;;;5029096;28;20421;-57
2021/10/22 04:51:28;;;;;;;13.88;4.05;;;5.50;99.90;;;;;;5046769;28;20468;-57
2021/10/22 04:53:54;;;;;;;11.70;3.60;;;5.60;99.90;;;;;;5031402;28;20391;-57
2021/10/22 04:56:20;;;;;;;13.50;3.93;;;5.60;99.90;;;;;;5040179;28;20766;-57
2021/10/22 04:58:47;;;;;;;11.45;3.30;;;5.50;99.90;;;;;;5045636;28;20749;-56
2021/10/22 05:01:13;;;;;;;9.40;4.00;;;5.50;99.90;;;;;;5050358;28;20850;-56
2021/10/22 05:03:38;;;;;;;8.68;3.67;;;5.40;99.90;;;;;;5050970;28;20434;-56
2021/10/22 05:06:04;;;;;;;10.57;3.50;;;4.90;99.90;;;;;;5051639;28;20380;-57
2021/10/22 05:08:30;;;;;;;14.23;4.60;;;5.30;99.90;;;;;;5050319;28;20409;-56
2021/10/22 05:10:56;;;;;;;8.80;3.70;;;5.30;99.90;;;;;;5052302;28;20467;-56
2021/10/22 05:13:21;;;;;;;10.23;4.40;;;5.40;99.90;;;;;;5051301;28;20392;-56
2021/10/22 05:15:48;;;;;;;8.35;3.63;;;5.40;99.90;;;;;;5051898;28;20374;-56
2021/10/22 05:18:13;;;;;;;12.52;4.00;;;6.30;99.90;;;;;;5043278;28;20429;-56
2021/10/22 05:20:39;;;;;;;12.20;3.80;;;5.40;99.90;;;;;;5040251;28;20401;-56
2021/10/22 05:23:05;;;;;;;10.57;4.00;;;5.30;99.90;;;;;;5039558;28;20406;-56
2021/10/22 05:25:30;;;;;;;9.80;3.70;;;5.30;99.90;;;;;;5048492;28;20385;-57
2021/10/22 05:27:56;;;;;;;13.33;3.93;;;5.40;99.90;;;;;;5052108;28;20385;-57
2021/10/22 05:30:22;;;;;;;11.50;3.40;;;5.30;99.90;;;;;;5045416;28;20415;-56
2021/10/22 05:32:47;;;;;;;9.45;3.70;;;5.30;99.90;;;;;;5048529;28;20763;-59
2021/10/22 05:35:13;;;;;;;7.57;3.50;;;5.20;99.90;;;;;;5032352;28;20836;-56
2021/10/22 05:37:39;;;;;;;10.05;3.47;;;5.20;99.90;;;;;;5044388;28;20385;-56
2021/10/22 05:40:06;;;;;;;12.30;3.78;;;5.20;99.90;;;;;;5052066;28;20394;-57
2021/10/22 05:42:32;;;;;;;10.52;3.80;;;5.20;99.90;;;;;;5049746;28;20476;-57
2021/10/22 05:44:57;;;;;;;8.03;3.10;;;5.20;99.90;;;;;;5043383;28;20490;-56
2021/10/22 05:47:23;;;;;;;9.00;3.23;;;5.20;99.90;;;;;;5033169;28;20393;-56
2021/10/22 05:49:49;;;;;;;12.15;3.60;;;5.10;99.90;;;;;;5043462;28;20931;-58
2021/10/22 05:52:16;;;;;;;12.77;3.28;;;5.10;99.90;;;;;;5033991;28;20405;-59
2021/10/22 05:54:43;;;;;;;10.20;4.00;;;5.10;99.90;;;;;;5050675;28;20397;-59
2021/10/22 05:57:08;;;;;;;7.82;3.20;;;5.10;99.90;;;;;;5075574;28;20391;-59
2021/10/22 05:59:34;;;;;;;10.23;3.87;;;5.10;99.90;;;;;;5030632;28;20890;-59
2021/10/22 06:02:00;;;;;;;9.80;3.20;;;5.20;99.90;;;;;;5037145;28;20585;-59
2021/10/22 06:04:26;;;;;;;9.90;4.20;;;5.20;99.90;;;;;;5039662;28;20382;-59
2021/10/22 06:06:51;;;;;;;9.52;3.53;;;5.20;99.90;;;;;;5050892;28;20397;-59
2021/10/22 06:09:17;;;;;;;10.63;2.90;;;5.20;99.90;;;;;;5049417;28;20845;-57
2021/10/22 06:11:44;;;;;;;8.90;2.83;;;5.20;99.90;;;;;;5039003;28;20452;-57
2021/10/22 06:14:10;;;;;;;10.93;3.27;;;5.20;99.90;;;;;;5039555;28;20493;-56
2021/10/22 06:16:36;;;;;;;14.15;3.78;;;5.40;99.90;;;;;;5043897;28;20397;-56
2021/10/22 06:19:03;;;;;;;8.85;3.15;;;5.40;99.90;;;;;;5034429;28;20379;-56
2021/10/22 06:21:52;;;;;;;13.68;3.20;;;5.30;99.90;;;;;;5038285;28;20376;-56
2021/10/22 06:24:18;;;;;;;10.02;3.13;;;5.30;99.90;;;;;;5037353;28;20426;-57
2021/10/22 06:26:44;;;;;;;9.80;2.70;;;5.30;99.90;;;;;;5047716;28;20405;-57
2021/10/22 06:29:12;;;;;;;15.15;3.53;;;5.50;99.90;;;;;;5050526;28;20839;-56
2021/10/22 06:31:40;;;;;;;8.52;3.22;;;5.50;99.90;;;;;;5049489;28;20868;-57
2021/10/22 06:34:06;;;;;;;10.85;3.72;;;5.50;99.90;;;;;;5050098;28;20378;-57
2021/10/22 06:36:33;;;;;;;10.20;3.60;;;5.60;99.90;;;;;;5049429;28;21225;-57
2021/10/22 06:38:59;;;;;;;11.37;3.50;;;6.00;99.90;;;;;;5049988;28;20381;-57
2021/10/22 06:41:25;;;;;;;7.40;3.00;;;6.80;99.90;;;;;;5047276;28;20393;-57
2021/10/22 06:43:51;;;;;;;8.40;2.80;;;7.60;99.90;;;;;;5047466;28;20904;-57
2021/10/22 06:46:17;;;;;;;11.48;2.60;;;8.40;99.90;;;;;;5048364;28;20677;-57
2021/10/22 06:48:44;;;;;;;11.27;2.50;;;9.10;99.90;;;;;;5040014;28;20840;-59
2021/10/22 06:51:11;;;;;;;6.30;2.60;;;9.40;99.90;;;;;;5045991;28;20469;-59
2021/10/22 06:53:38;;;;;;;13.20;3.10;;;9.40;99.90;;;;;;5048290;28;20447;-59
2021/10/22 06:56:04;;;;;;;7.43;2.60;;;9.30;99.90;;;;;;5050122;28;20488;-57
2021/10/22 06:58:30;;;;;;;9.93;2.70;;;9.40;99.90;;;;;;5049148;28;20408;-59
2021/10/22 07:00:58;;;;;;;9.70;2.85;;;9.80;99.90;;;;;;5049782;28;20385;-58
2021/10/22 07:03:25;;;;;;;10.60;2.50;;;10.10;99.90;;;;;;5049443;28;20417;-58
2021/10/22 07:08:20;;;;;;;11.53;2.73;;;11.00;99.90;;;;;;5049311;28;20400;-57
2021/10/22 07:10:47;;;;;;;9.75;2.40;;;11.40;99.90;;;;;;5049934;28;20421;-57
2021/10/22 07:13:12;;;;;;;9.27;2.30;;;12.20;99.90;;;;;;5049265;28;20885;-58
2021/10/22 07:15:38;;;;;;;9.13;2.90;;;12.80;99.90;;;;;;5048964;28;20444;-57
2021/10/22 07:18:04;;;;;;;10.15;2.78;;;13.00;99.90;;;;;;5049898;28;20377;-57
2021/10/22 07:20:31;;;;;;;9.70;2.77;;;13.00;99.90;;;;;;5049174;28;20853;-57
2021/10/22 07:25:31;;;;;;;8.95;2.35;;;12.40;99.90;;;;;;5048664;28;20376;-57
2021/10/22 07:27:57;;;;;;;8.37;2.50;;;13.00;99.90;;;;;;5049839;28;20393;-57
2021/10/22 07:30:23;;;;;;;8.13;2.33;;;13.50;99.90;;;;;;5048916;28;20409;-57
2021/10/22 07:32:49;;;;;;;7.53;2.20;;;14.40;99.90;;;;;;5049576;28;20722;-58
2021/10/22 07:35:15;;;;;;;10.77;2.88;;;14.90;99.90;;;;;;5049515;28;20382;-57
2021/10/22 07:37:42;;;;;;;9.03;3.27;;;14.10;99.90;;;;;;5048444;28;20385;-57
2021/10/22 07:40:08;;;;;;;9.85;3.20;;;14.00;99.90;;;;;;5047284;28;20828;-57
2021/10/22 07:42:34;;;;;;;12.35;3.05;;;14.10;99.90;;;;;;5046771;28;20409;-57
2021/10/22 07:45:03;;;;;;;13.20;3.58;;;14.30;99.90;;;;;;5042480;28;20573;-57
2021/10/22 07:47:33;;;;;;;8.82;2.80;;;14.90;99.90;;;;;;5042605;28;20407;-57
2021/10/22 07:50:00;;;;;;;17.47;3.37;;;14.80;99.90;;;;;;5047380;28;20414;-57
2021/10/22 07:52:28;;;;;;;9.93;3.00;;;14.60;99.90;;;;;;5035212;28;20391;-58
2021/10/22 07:54:55;;;;;;;12.88;2.80;;;14.50;99.90;;;;;;5035763;28;20423;-57
2021/10/22 07:57:23;;;;;;;16.77;3.03;;;14.20;99.90;;;;;;5045399;28;20456;-58
2021/10/22 07:59:49;;;;;;;15.20;3.00;;;14.10;99.90;;;;;;5046723;28;20475;-57
2021/10/22 08:02:16;;;;;;;8.13;2.92;;;14.20;99.90;;;;;;5048246;28;20459;-57
2021/10/22 08:04:45;;;;;;;12.38;2.80;;;14.50;99.90;;;;;;5047591;28;20872;-57
2021/10/22 08:07:12;;;;;;;11.52;2.70;;;14.80;99.90;;;;;;5048936;28;20428;-57
2021/10/22 08:09:40;;;;;;;13.00;3.55;;;14.80;99.90;;;;;;5047807;28;21001;-57
2021/10/22 08:12:06;;;;;;;11.40;3.03;;;14.80;99.90;;;;;;5049519;28;20427;-57
2021/10/22 08:14:32;;;;;;;10.07;2.60;;;14.90;99.90;;;;;;5048136;28;20385;-58
2021/10/22 08:16:59;;;;;;;11.38;3.05;;;15.30;99.90;;;;;;5049059;28;20392;-57
2021/10/22 08:19:25;;;;;;;14.98;2.70;;;15.40;99.90;;;;;;5048219;28;20390;-58
2021/10/22 08:24:35;;;;;;;10.48;2.40;;;15.70;99.90;;;;;;5048278;28;20377;-58
2021/10/22 08:27:01;;;;;;;9.60;2.20;;;15.30;99.90;;;;;;5048724;28;20385;-57
2021/10/22 08:29:27;;;;;;;8.68;2.25;;;15.20;99.90;;;;;;5048026;28;20471;-57
2021/10/22 08:31:53;;;;;;;12.25;3.10;;;14.00;99.90;;;;;;5048920;28;20924;-58
2021/10/22 08:34:20;;;;;;;13.10;3.17;;;14.50;99.90;;;;;;5050161;28;20388;-58
2021/10/22 08:36:46;;;;;;;10.02;2.85;;;14.70;99.90;;;;;;5052581;28;20394;-58
2021/10/22 08:39:12;;;;;;;10.93;3.03;;;14.80;99.90;;;;;;5052571;28;20390;-58
2021/10/22 08:41:39;;;;;;;8.90;2.70;;;15.30;99.90;;;;;;5052161;28;20381;-58
2021/10/22 08:44:05;;;;;;;8.85;3.10;;;15.90;99.90;;;;;;5052782;28;20431;-58
2021/10/22 08:46:35;;;;;;;12.97;2.90;;;16.30;99.90;;;;;;5051863;28;20385;-58
2021/10/22 08:49:01;;;;;;;10.55;2.85;;;15.60;99.90;;;;;;5052415;28;20533;-58
2021/10/22 08:51:27;;;;;;;9.05;2.95;;;16.50;99.90;;;;;;5051990;28;20384;-58
2021/10/22 08:53:53;;;;;;;8.65;3.20;;;17.10;99.90;;;;;;5052430;28;20381;-58
2021/10/22 08:56:19;;;;;;;13.13;4.03;;;17.60;99.90;;;;;;5051606;28;20478;-58
2021/10/22 08:58:45;;;;;;;8.10;3.20;;;17.90;98.90;;;;;;5050968;28;20381;-58
2021/10/22 09:01:11;;;;;;;10.38;3.00;;;17.70;98.00;;;;;;5052417;28;20393;-58
2021/10/22 09:03:38;;;;;;;8.63;3.00;;;16.80;98.70;;;;;;5051358;28;20737;-58
2021/10/22 09:06:14;;;;;;;10.80;2.90;;;16.50;99.70;;;;;;5052761;28;20519;-58
2021/10/22 09:08:42;;;;;;;12.35;3.17;;;16.10;99.50;;;;;;5051486;28;21095;-58
2021/10/22 09:11:23;;;;;;;10.20;3.20;;;15.90;99.80;;;;;;5052143;28;20397;-58
2021/10/22 09:14:13;;;;;;;15.45;3.60;;;16.20;99.50;;;;;;5052358;28;20385;-58
2021/10/22 09:16:44;;;;;;;8.50;2.60;;;16.00;99.40;;;;;;5051088;28;20566;-58
2021/10/22 09:19:10;;;;;;;9.25;2.90;;;15.90;99.40;;;;;;5051965;28;20393;-58
2021/10/22 09:21:36;;;;;;;10.45;3.08;;;15.70;99.90;;;;;;5051225;28;20380;-58
2021/10/22 09:24:20;;;;;;;10.07;3.40;;;16.20;99.20;;;;;;5052083;28;20370;-58
2021/10/22 09:26:59;;;;;;;8.38;2.50;;;16.10;98.50;;;;;;5051405;28;20385;-58
2021/10/22 09:29:27;;;;;;;12.70;3.10;;;16.20;98.10;;;;;;5051053;28;20459;-58
2021/10/22 09:31:56;;;;;;;11.35;3.17;;;15.00;98.50;;;;;;5051798;28;20377;-58
2021/10/22 09:34:35;;;;;;;9.65;3.05;;;15.40;99.90;;;;;;5049938;28;20416;-58
2021/10/22 09:37:04;;;;;;;6.57;2.20;;;15.40;99.90;;;;;;5051813;28;20436;-58
2021/10/22 09:39:36;;;;;;;10.95;2.90;;;15.90;99.10;;;;;;5050528;28;20381;-59
2021/10/22 09:42:08;;;;;;;9.82;2.55;;;16.10;99.60;;;;;;5051496;28;20424;-58
2021/10/22 09:44:38;;;;;;;11.68;3.30;;;16.50;97.10;;;;;;5050719;28;20374;-59
2021/10/22 09:47:04;;;;;;;11.30;3.50;;;17.10;97.10;;;;;;5050542;28;20415;-58
2021/10/22 09:49:31;;;;;;;11.30;3.40;;;16.80;97.70;;;;;;5050381;28;21018;-59
2021/10/22 09:51:57;;;;;;;9.57;2.70;;;17.50;95.40;;;;;;5051177;28;20468;-58
2021/10/22 09:54:31;;;;;;;8.45;3.08;;;17.20;94.40;;;;;;5050588;28;20469;-58
2021/10/22 09:57:01;;;;;;;11.23;2.83;;;15.80;93.80;;;;;;5042844;28;20428;-58
2021/10/22 09:59:27;;;;;;;10.57;2.90;;;15.10;95.30;;;;;;5029471;28;20391;-59
2021/10/22 10:02:01;;;;;;;9.38;2.50;;;15.20;97.60;;;;;;5031598;28;20376;-58
2021/10/22 10:04:28;;;;;;;9.27;2.97;;;15.40;96.90;;;;;;5030591;28;20440;-58
2021/10/22 10:06:55;;;;;;;9.23;2.45;;;15.70;95.90;;;;;;5031048;28;20402;-58
2021/10/22 10:09:26;;;;;;;10.93;3.13;;;16.10;94.60;;;;;;5030274;28;20450;-59
2021/10/22 10:11:53;;;;;;;7.95;2.70;;;16.50;95.50;;;;;;5030192;28;20383;-58
2021/10/22 10:14:23;;;;;;;9.15;2.78;;;15.90;93.20;;;;;;5030744;28;20379;-58
2021/10/22 10:16:50;;;;;;;7.03;2.85;;;14.90;91.90;;;;;;5030452;28;20474;-58
2021/10/22 10:19:24;;;;;;;7.70;2.10;;;14.40;92.70;;;;;;5031369;28;20712;-58
2021/10/22 10:21:54;;;;;;;9.13;2.55;;;14.10;93.70;;;;;;5030535;28;20391;-58
2021/10/22 10:24:27;;;;;;;10.18;3.00;;;14.20;93.40;;;;;;5030599;28;20734;-58
2021/10/22 10:27:07;;;;;;;8.17;3.40;;;14.20;93.20;;;;;;5030544;28;20383;-58
2021/10/22 10:30:00;;;;;;;7.00;2.53;;;14.00;92.40;;;;;;5029601;28;20529;-58
2021/10/22 10:32:29;;;;;;;6.47;2.20;;;14.00;93.00;;;;;;5029040;28;20494;-58
2021/10/22 10:34:57;;;;;;;10.82;2.80;;;13.60;91.90;;;;;;5030343;28;20846;-58
2021/10/22 10:37:35;;;;;;;7.30;2.40;;;13.40;91.90;;;;;;5030324;28;20823;-58
2021/10/22 10:40:12;;;;;;;8.70;2.80;;;13.60;92.50;;;;;;5030229;28;20410;-58
2021/10/22 10:42:56;;;;;;;8.17;2.33;;;14.00;92.60;;;;;;5029663;28;20391;-59
2021/10/22 10:45:23;;;;;;;11.57;2.63;;;14.50;92.10;;;;;;5030098;28;20388;-59
2021/10/22 10:47:54;;;;;;;7.65;2.30;;;15.10;90.70;;;;;;5030147;28;20971;-59
2021/10/22 10:50:38;;;;;;;5.70;2.00;;;14.70;88.30;;;;;;5030429;28;20415;-59
2021/10/22 10:53:04;;;;;;;7.35;2.05;;;14.70;87.80;;;;;;5030570;28;20855;-60
2021/10/22 10:55:39;;;;;;;8.32;2.70;;;14.40;85.70;;;;;;5028851;28;20870;-59
2021/10/22 10:58:08;;;;;;;6.97;2.50;;;14.50;86.80;;;;;;5047664;28;20380;-59
2021/10/22 11:00:43;;;;;;;7.90;2.50;;;14.80;88.90;;;;;;5049060;28;20865;-59
2021/10/22 11:03:10;;;;;;;8.70;2.30;;;14.20;85.20;;;;;;5082782;28;20753;-59
2021/10/22 11:05:49;;;;;;;6.35;2.38;;;14.30;88.30;;;;;;5081395;28;20893;-59
2021/10/22 11:08:25;;;;;;;10.00;3.20;;;14.30;89.00;;;;;;5049512;28;20450;-59
2021/10/22 11:11:10;;;;;;;6.65;2.30;;;14.80;90.90;;;;;;5049827;28;20845;-59
2021/10/22 11:13:42;;;;;;;7.60;2.40;;;14.60;89.80;;;;;;5049151;28;20389;-59
2021/10/22 11:16:44;;;;;;;8.05;2.70;;;14.10;90.30;;;;;;5049702;28;20848;-58
2021/10/22 11:19:18;;;;;;;6.38;2.20;;;13.60;90.20;;;;;;5049157;28;20397;-58
2021/10/22 11:21:50;;;;;;;6.47;2.30;;;13.40;91.30;;;;;;5049041;28;21018;-58
2021/10/22 11:24:24;;;;;;;8.13;2.25;;;13.30;92.00;;;;;;5049812;28;20491;-58
2021/10/22 11:27:01;;;;;;;9.73;2.47;;;13.10;91.90;;;;;;5049309;28;20887;-58
2021/10/22 11:29:32;;;;;;;7.85;1.90;;;13.10;91.80;;;;;;5048917;28;20456;-58
2021/10/22 11:32:11;;;;;;;6.72;1.60;;;13.30;93.00;;;;;;5049517;28;20370;-58
2021/10/22 11:34:44;;;;;;;7.47;1.90;;;13.20;92.40;;;;;;5048824;28;20416;-58
2021/10/22 11:37:14;;;;;;;7.05;2.10;;;13.00;92.10;;;;;;5049152;28;20417;-58
2021/10/22 11:39:41;;;;;;;5.57;1.60;;;13.00;92.20;;;;;;5047984;28;20461;-58
2021/10/22 11:42:10;;;;;;;7.00;1.80;;;13.10;92.20;;;;;;5081834;28;20423;-58
2021/10/22 11:44:38;;;;;;;9.70;2.00;;;13.30;91.10;;;;;;5048424;28;20390;-58
2021/10/22 11:47:05;;;;;;;8.10;2.10;;;13.50;92.70;;;;;;5049342;28;20476;-58
2021/10/22 11:49:36;;;;;;;8.20;1.88;;;13.50;92.20;;;;;;5047259;28;20427;-58
2021/10/22 11:52:04;;;;;;;9.93;2.38;;;13.30;91.10;;;;;;5049192;28;20388;-58
2021/10/22 11:54:38;;;;;;;5.47;1.80;;;13.30;92.70;;;;;;5047195;28;20395;-58
2021/10/22 11:57:21;;;;;;;5.90;2.10;;;13.00;88.30;;;;;;5047768;28;20417;-58
2021/10/22 11:59:53;;;;;;;6.80;2.10;;;12.90;90.30;;;;;;5048104;28;21060;-58
2021/10/22 12:02:30;;;;;;;9.10;2.00;;;12.90;89.10;;;;;;5048548;28;20484;-58
2021/10/22 12:05:05;;;;;;;8.30;1.90;;;12.80;85.50;;;;;;5049016;28;20464;-57
2021/10/22 12:07:36;;;;;;;7.80;1.70;;;13.10;88.20;;;;;;5047812;28;20420;-58
2021/10/22 12:10:04;;;;;;;9.55;2.10;;;13.20;90.00;;;;;;5048103;28;20440;-58
2021/10/22 12:12:38;;;;;;;8.30;2.40;;;12.90;86.40;;;;;;5047920;28;20386;-58
2021/10/22 12:15:06;;;;;;;5.78;1.90;;;13.20;90.50;;;;;;5049212;28;20423;-57
2021/10/22 12:17:32;;;;;;;6.28;2.05;;;13.40;87.10;;;;;;5048069;28;20389;-58
2021/10/22 12:20:03;;;;;;;6.90;2.43;;;13.30;87.10;;;;;;5049305;28;20400;-58
2021/10/22 12:22:34;;;;;;;7.43;2.00;;;13.00;86.50;;;;;;5080673;28;20748;-58
2021/10/22 12:25:24;;;;;;;7.65;2.20;;;12.90;89.20;;;;;;5048971;28;20386;-58
2021/10/22 12:28:00;;;;;;;8.45;2.00;;;12.90;90.90;;;;;;5046995;28;20548;-57
2021/10/22 12:30:28;;;;;;;5.53;1.53;;;12.90;92.10;;;;;;5080925;28;20427;-59
2021/10/22 12:33:06;;;;;;;8.80;1.67;;;13.20;91.10;;;;;;5048261;28;20373;-58
2021/10/22 12:35:53;;;;;;;6.72;1.80;;;13.30;91.60;;;;;;5048354;28;20392;-58
2021/10/22 12:38:28;;;;;;;8.82;2.80;;;13.30;91.50;;;;;;5048256;28;20760;-58
2021/10/22 12:40:55;;;;;;;6.05;1.45;;;13.10;90.80;;;;;;5048326;28;20969;-58
2021/10/22 12:43:22;;;;;;;8.10;2.13;;;12.90;90.00;;;;;;5046943;28;20765;-57
2021/10/22 12:45:49;;;;;;;7.70;2.00;;;12.90;91.70;;;;;;5047790;28;20407;-58
2021/10/22 12:48:17;;;;;;;8.48;2.30;;;13.00;91.50;;;;;;5048568;28;20409;-58
2021/10/22 12:50:43;;;;;;;9.73;2.58;;;13.10;91.70;;;;;;5047690;28;20416;-58
2021/10/22 12:53:19;;;;;;;7.15;1.83;;;13.30;91.00;;;;;;5047964;28;20707;-58
2021/10/22 12:55:57;;;;;;;6.50;1.58;;;12.80;90.40;;;;;;5048143;28;20402;-58
2021/10/22 12:58:24;;;;;;;7.10;1.80;;;12.90;91.40;;;;;;5028276;28;20416;-58
2021/10/22 13:01:13;;;;;;;7.55;1.77;;;13.20;92.20;;;;;;5028026;28;20763;-58
2021/10/22 13:03:41;;;;;;;6.90;2.03;;;13.10;90.70;;;;;;5028047;28;20428;-57